sensor_id;sensor_type;location;lat;lon;timestamp;temperature;humidity
8180;DHT22;4131;48.810;11.892;2023-04-24T00:01:43;10.40;99.90
8180;DHT22;4131;48.810;11.892;2023-04-24T00:04:13;11.50;99.90
8180;DHT22;4131;48.810;11.892;2023-04-24T00:06:43;10.40;99.90
8180;DHT22;4131;48.810;11.892;2023-04-24T00:09:16;10.90;99.90
8180;DHT22;4131;48.810;11.892;2023-04-24T00:11:43;10.40;99.90
8180;DHT22;4131;48.810;11.892;2023-04-24T00:14:13;10.40;99.90
8180;DHT22;4131;48.810;11.892;2023-04-24T00:16:41;10.40;99.90
8180;DHT22;4131;48.810;11.892;2023-04-24T00:19:09;10.40;99.90
8180;DHT22;4131;48.810;11.892;2023-04-24T00:21:40;10.40;99.90
8180;DHT22;4131;48.810;11.892;2023-04-24T00:24:08;10.30;99.90
8180;DHT22;4131;48.810;11.892;2023-04-24T00:26:36;10.30;99.90
8180;DHT22;4131;48.810;11.892;2023-04-24T00:29:04;10.30;99.90
8180;DHT22;4131;48.810;11.892;2023-04-24T00:31:34;10.30;99.90
8180;DHT22;4131;48.810;11.892;2023-04-24T00:34:02;11.50;99.90
8180;DHT22;4131;48.810;11.892;2023-04-24T00:36:30;10.20;99.90
8180;DHT22;4131;48.810;11.892;2023-04-24T00:38:59;10.30;99.90
8180;DHT22;4131;48.810;11.892;2023-04-24T00:41:27;10.20;99.90
8180;DHT22;4131;48.810;11.892;2023-04-24T00:43:55;10.30;99.90
8180;DHT22;4131;48.810;11.892;2023-04-24T00:46:23;10.30;99.90
8180;DHT22;4131;48.810;11.892;2023-04-24T00:48:53;10.20;99.90
8180;DHT22;4131;48.810;11.892;2023-04-24T00:51:21;10.20;99.90
8180;DHT22;4131;48.810;11.892;2023-04-24T00:53:51;10.20;99.90
8180;DHT22;4131;48.810;11.892;2023-04-24T00:56:19;10.20;99.90
8180;DHT22;4131;48.810;11.892;2023-04-24T00:58:47;10.20;99.90
8180;DHT22;4131;48.810;11.892;2023-04-24T01:01:16;10.20;99.90
8180;DHT22;4131;48.810;11.892;2023-04-24T01:03:45;10.50;99.90
8180;DHT22;4131;48.810;11.892;2023-04-24T01:06:15;10.10;99.90
8180;DHT22;4131;48.810;11.892;2023-04-24T01:08:43;10.10;99.90
8180;DHT22;4131;48.810;11.892;2023-04-24T01:11:13;10.10;99.90
8180;DHT22;4131;48.810;11.892;2023-04-24T01:13:41;10.10;99.90
8180;DHT22;4131;48.810;11.892;2023-04-24T01:16:09;10.10;99.90
8180;DHT22;4131;48.810;11.892;2023-04-24T01:18:37;10.10;99.90
8180;DHT22;4131;48.810;11.892;2023-04-24T01:21:06;10.10;99.90
8180;DHT22;4131;48.810;11.892;2023-04-24T01:23:37;10.10;99.90
8180;DHT22;4131;48.810;11.892;2023-04-24T01:26:05;10.00;99.90
8180;DHT22;4131;48.810;11.892;2023-04-24T01:28:33;10.30;99.90
8180;DHT22;4131;48.810;11.892;2023-04-24T01:31:01;10.10;99.90
8180;DHT22;4131;48.810;11.892;2023-04-24T01:33:29;10.10;99.90
8180;DHT22;4131;48.810;11.892;2023-04-24T01:35:57;10.00;99.90
8180;DHT22;4131;48.810;11.892;2023-04-24T01:38:25;10.10;99.90
8180;DHT22;4131;48.810;11.892;2023-04-24T01:40:55;10.00;99.90
8180;DHT22;4131;48.810;11.892;2023-04-24T01:43:23;10.20;99.90
8180;DHT22;4131;48.810;11.892;2023-04-24T01:45:52;10.00;99.90
8180;DHT22;4131;48.810;11.892;2023-04-24T01:48:20;10.00;99.90
8180;DHT22;4131;48.810;11.892;2023-04-24T01:50:48;10.00;99.90
8180;DHT22;4131;48.810;11.892;2023-04-24T01:53:16;10.00;99.90
8180;DHT22;4131;48.810;11.892;2023-04-24T01:55:44;10.60;99.90
8180;DHT22;4131;48.810;11.892;2023-04-24T01:58:13;10.00;99.90
8180;DHT22;4131;48.810;11.892;2023-04-24T02:00:41;10.20;99.90
8180;DHT22;4131;48.810;11.892;2023-04-24T02:03:09;10.00;99.90
8180;DHT22;4131;48.810;11.892;2023-04-24T02:05:37;9.90;99.90
8180;DHT22;4131;48.810;11.892;2023-04-24T02:08:06;9.90;99.90
8180;DHT22;4131;48.810;11.892;2023-04-24T02:10:34;10.70;99.90
8180;DHT22;4131;48.810;11.892;2023-04-24T02:13:02;9.90;99.90
8180;DHT22;4131;48.810;11.892;2023-04-24T02:15:32;9.90;99.90
8180;DHT22;4131;48.810;11.892;2023-04-24T02:18:00;9.80;99.90
8180;DHT22;4131;48.810;11.892;2023-04-24T02:20:28;9.90;99.90
8180;DHT22;4131;48.810;11.892;2023-04-24T02:22:56;9.90;99.90
8180;DHT22;4131;48.810;11.892;2023-04-24T02:25:25;10.00;99.90
8180;DHT22;4131;48.810;11.892;2023-04-24T02:27:53;10.00;99.90
8180;DHT22;4131;48.810;11.892;2023-04-24T02:30:21;10.60;99.90
8180;DHT22;4131;48.810;11.892;2023-04-24T02:32:50;11.10;99.90
8180;DHT22;4131;48.810;11.892;2023-04-24T02:35:18;9.80;99.90
8180;DHT22;4131;48.810;11.892;2023-04-24T02:37:47;9.80;99.90
8180;DHT22;4131;48.810;11.892;2023-04-24T02:40:15;9.70;99.90
8180;DHT22;4131;48.810;11.892;2023-04-24T02:42:43;10.20;99.90
8180;DHT22;4131;48.810;11.892;2023-04-24T02:45:11;12.00;99.90
8180;DHT22;4131;48.810;11.892;2023-04-24T02:47:39;9.70;99.90
8180;DHT22;4131;48.810;11.892;2023-04-24T02:50:09;11.70;99.90
8180;DHT22;4131;48.810;11.892;2023-04-24T02:52:37;9.60;99.90
8180;DHT22;4131;48.810;11.892;2023-04-24T02:55:06;10.20;99.90
8180;DHT22;4131;48.810;11.892;2023-04-24T02:57:34;9.60;99.90
8180;DHT22;4131;48.810;11.892;2023-04-24T03:00:03;9.60;99.90
8180;DHT22;4131;48.810;11.892;2023-04-24T03:02:33;9.50;99.90
8180;DHT22;4131;48.810;11.892;2023-04-24T03:05:01;9.50;99.90
8180;DHT22;4131;48.810;11.892;2023-04-24T03:07:32;9.50;99.90
8180;DHT22;4131;48.810;11.892;2023-04-24T03:10:00;9.60;99.90
8180;DHT22;4131;48.810;11.892;2023-04-24T03:12:28;9.50;99.90
8180;DHT22;4131;48.810;11.892;2023-04-24T03:14:56;9.50;99.90
8180;DHT22;4131;48.810;11.892;2023-04-24T03:17:24;9.50;99.90
8180;DHT22;4131;48.810;11.892;2023-04-24T03:19:52;9.40;99.90
8180;DHT22;4131;48.810;11.892;2023-04-24T03:22:21;9.40;99.90
8180;DHT22;4131;48.810;11.892;2023-04-24T03:24:50;9.40;99.90
8180;DHT22;4131;48.810;11.892;2023-04-24T03:27:18;9.90;99.90
8180;DHT22;4131;48.810;11.892;2023-04-24T03:29:46;10.30;99.90
8180;DHT22;4131;48.810;11.892;2023-04-24T03:32:14;9.40;99.90
8180;DHT22;4131;48.810;11.892;2023-04-24T03:34:42;10.10;99.90
8180;DHT22;4131;48.810;11.892;2023-04-24T03:37:10;9.30;99.90
8180;DHT22;4131;48.810;11.892;2023-04-24T03:39:38;9.30;99.90
8180;DHT22;4131;48.810;11.892;2023-04-24T03:42:08;9.30;99.90
8180;DHT22;4131;48.810;11.892;2023-04-24T03:44:36;9.30;99.90
8180;DHT22;4131;48.810;11.892;2023-04-24T03:47:04;9.40;99.90
8180;DHT22;4131;48.810;11.892;2023-04-24T03:49:32;9.30;99.90
8180;DHT22;4131;48.810;11.892;2023-04-24T03:52:00;9.30;99.90
8180;DHT22;4131;48.810;11.892;2023-04-24T03:54:28;9.40;99.90
8180;DHT22;4131;48.810;11.892;2023-04-24T03:56:56;10.20;99.90
8180;DHT22;4131;48.810;11.892;2023-04-24T03:59:26;9.20;99.90
8180;DHT22;4131;48.810;11.892;2023-04-24T04:01:54;9.20;99.90
8180;DHT22;4131;48.810;11.892;2023-04-24T04:04:22;9.30;99.90
8180;DHT22;4131;48.810;11.892;2023-04-24T04:06:50;9.90;99.90
8180;DHT22;4131;48.810;11.892;2023-04-24T04:09:18;9.20;99.90
8180;DHT22;4131;48.810;11.892;2023-04-24T04:11:46;9.20;99.90
8180;DHT22;4131;48.810;11.892;2023-04-24T04:14:14;9.40;99.90
8180;DHT22;4131;48.810;11.892;2023-04-24T04:16:44;9.20;99.90
8180;DHT22;4131;48.810;11.892;2023-04-24T04:19:12;10.30;99.90
8180;DHT22;4131;48.810;11.892;2023-04-24T04:21:40;9.40;99.90
8180;DHT22;4131;48.810;11.892;2023-04-24T04:24:08;9.40;99.90
8180;DHT22;4131;48.810;11.892;2023-04-24T04:26:36;9.20;99.90
8180;DHT22;4131;48.810;11.892;2023-04-24T04:29:04;9.30;99.90
8180;DHT22;4131;48.810;11.892;2023-04-24T04:31:33;9.30;99.90
8180;DHT22;4131;48.810;11.892;2023-04-24T04:34:02;9.20;99.90
8180;DHT22;4131;48.810;11.892;2023-04-24T04:36:30;9.20;99.90
8180;DHT22;4131;48.810;11.892;2023-04-24T04:38:59;9.20;99.90
8180;DHT22;4131;48.810;11.892;2023-04-24T04:41:27;9.20;99.90
8180;DHT22;4131;48.810;11.892;2023-04-24T04:43:55;9.50;99.90
8180;DHT22;4131;48.810;11.892;2023-04-24T04:46:25;9.50;99.90
8180;DHT22;4131;48.810;11.892;2023-04-24T04:48:53;9.30;99.90
8180;DHT22;4131;48.810;11.892;2023-04-24T04:51:24;10.00;99.90
8180;DHT22;4131;48.810;11.892;2023-04-24T04:53:52;9.20;99.90
8180;DHT22;4131;48.810;11.892;2023-04-24T04:56:20;9.20;99.90
8180;DHT22;4131;48.810;11.892;2023-04-24T04:58:49;9.20;99.90
8180;DHT22;4131;48.810;11.892;2023-04-24T05:01:16;9.80;99.90
8180;DHT22;4131;48.810;11.892;2023-04-24T05:03:45;9.20;99.90
8180;DHT22;4131;48.810;11.892;2023-04-24T05:06:13;9.60;99.90
8180;DHT22;4131;48.810;11.892;2023-04-24T05:08:43;9.20;99.90
8180;DHT22;4131;48.810;11.892;2023-04-24T05:11:11;9.20;99.90
8180;DHT22;4131;48.810;11.892;2023-04-24T05:13:39;9.30;99.90
8180;DHT22;4131;48.810;11.892;2023-04-24T05:16:07;9.50;99.90
8180;DHT22;4131;48.810;11.892;2023-04-24T05:18:35;9.30;99.90
8180;DHT22;4131;48.810;11.892;2023-04-24T05:21:03;9.30;99.90
8180;DHT22;4131;48.810;11.892;2023-04-24T05:23:31;9.30;99.90
8180;DHT22;4131;48.810;11.892;2023-04-24T05:26:01;9.30;99.90
8180;DHT22;4131;48.810;11.892;2023-04-24T05:28:32;9.40;99.90
8180;DHT22;4131;48.810;11.892;2023-04-24T05:31:00;9.30;99.90
8180;DHT22;4131;48.810;11.892;2023-04-24T05:33:29;9.80;99.90
8180;DHT22;4131;48.810;11.892;2023-04-24T05:35:57;9.40;99.90
8180;DHT22;4131;48.810;11.892;2023-04-24T05:38:25;9.40;99.90
8180;DHT22;4131;48.810;11.892;2023-04-24T05:40:53;9.40;99.90
8180;DHT22;4131;48.810;11.892;2023-04-24T05:43:22;9.50;99.90
8180;DHT22;4131;48.810;11.892;2023-04-24T05:45:50;9.50;99.90
8180;DHT22;4131;48.810;11.892;2023-04-24T05:48:20;9.50;99.90
8180;DHT22;4131;48.810;11.892;2023-04-24T05:50:48;9.50;99.90
8180;DHT22;4131;48.810;11.892;2023-04-24T05:53:17;9.60;99.90
8180;DHT22;4131;48.810;11.892;2023-04-24T05:55:48;9.60;99.90
8180;DHT22;4131;48.810;11.892;2023-04-24T05:58:16;9.60;99.90
8180;DHT22;4131;48.810;11.892;2023-04-24T06:00:45;9.90;99.90
8180;DHT22;4131;48.810;11.892;2023-04-24T06:03:13;10.50;99.90
8180;DHT22;4131;48.810;11.892;2023-04-24T06:05:42;11.90;99.90
8180;DHT22;4131;48.810;11.892;2023-04-24T06:08:10;9.90;99.90
8180;DHT22;4131;48.810;11.892;2023-04-24T06:10:38;9.80;99.90
8180;DHT22;4131;48.810;11.892;2023-04-24T06:13:06;9.90;99.90
8180;DHT22;4131;48.810;11.892;2023-04-24T06:15:34;9.90;99.90
8180;DHT22;4131;48.810;11.892;2023-04-24T06:18:04;10.30;99.90
8180;DHT22;4131;48.810;11.892;2023-04-24T06:20:32;10.10;99.90
8180;DHT22;4131;48.810;11.892;2023-04-24T06:23:00;10.40;99.90
8180;DHT22;4131;48.810;11.892;2023-04-24T06:25:28;11.10;99.90
8180;DHT22;4131;48.810;11.892;2023-04-24T06:27:57;11.00;99.90
8180;DHT22;4131;48.810;11.892;2023-04-24T06:30:25;11.50;99.90
8180;DHT22;4131;48.810;11.892;2023-04-24T06:32:54;10.70;99.90
8180;DHT22;4131;48.810;11.892;2023-04-24T06:35:33;10.70;99.90
8180;DHT22;4131;48.810;11.892;2023-04-24T06:38:01;10.60;99.90
8180;DHT22;4131;48.810;11.892;2023-04-24T06:40:29;11.80;99.90
8180;DHT22;4131;48.810;11.892;2023-04-24T06:42:57;10.70;99.90
8180;DHT22;4131;48.810;11.892;2023-04-24T06:45:26;11.80;99.90
8180;DHT22;4131;48.810;11.892;2023-04-24T06:47:54;10.60;99.90
8180;DHT22;4131;48.810;11.892;2023-04-24T06:50:24;11.00;99.90
8180;DHT22;4131;48.810;11.892;2023-04-24T06:52:53;10.50;99.90
8180;DHT22;4131;48.810;11.892;2023-04-24T06:55:21;10.60;99.90
8180;DHT22;4131;48.810;11.892;2023-04-24T06:57:49;10.80;99.90
8180;DHT22;4131;48.810;11.892;2023-04-24T07:00:18;10.70;99.90
8180;DHT22;4131;48.810;11.892;2023-04-24T07:02:46;10.70;99.90
8180;DHT22;4131;48.810;11.892;2023-04-24T07:05:14;10.90;99.90
8180;DHT22;4131;48.810;11.892;2023-04-24T07:07:46;11.10;99.90
8180;DHT22;4131;48.810;11.892;2023-04-24T07:10:17;10.90;99.90
8180;DHT22;4131;48.810;11.892;2023-04-24T07:12:45;10.90;99.90
8180;DHT22;4131;48.810;11.892;2023-04-24T07:15:13;13.10;99.90
8180;DHT22;4131;48.810;11.892;2023-04-24T07:17:41;13.00;99.90
8180;DHT22;4131;48.810;11.892;2023-04-24T07:20:11;10.90;99.90
8180;DHT22;4131;48.810;11.892;2023-04-24T07:22:41;10.90;99.90
8180;DHT22;4131;48.810;11.892;2023-04-24T07:25:09;11.00;99.90
8180;DHT22;4131;48.810;11.892;2023-04-24T07:27:39;11.00;99.90
8180;DHT22;4131;48.810;11.892;2023-04-24T07:30:07;11.50;99.90
8180;DHT22;4131;48.810;11.892;2023-04-24T07:32:36;11.10;99.90
8180;DHT22;4131;48.810;11.892;2023-04-24T07:35:04;11.20;99.90
8180;DHT22;4131;48.810;11.892;2023-04-24T07:37:33;11.10;99.90
8180;DHT22;4131;48.810;11.892;2023-04-24T07:40:01;11.10;99.90
8180;DHT22;4131;48.810;11.892;2023-04-24T07:42:29;11.00;99.90
8180;DHT22;4131;48.810;11.892;2023-04-24T07:44:59;11.00;99.90
8180;DHT22;4131;48.810;11.892;2023-04-24T07:47:27;11.70;99.90
8180;DHT22;4131;48.810;11.892;2023-04-24T07:49:55;11.40;99.90
8180;DHT22;4131;48.810;11.892;2023-04-24T07:52:23;11.60;99.90
8180;DHT22;4131;48.810;11.892;2023-04-24T07:54:51;11.10;99.90
8180;DHT22;4131;48.810;11.892;2023-04-24T07:57:25;11.80;99.90
8180;DHT22;4131;48.810;11.892;2023-04-24T07:59:53;11.60;99.90
8180;DHT22;4131;48.810;11.892;2023-04-24T08:02:22;11.80;99.90
8180;DHT22;4131;48.810;11.892;2023-04-24T08:04:53;11.90;99.90
8180;DHT22;4131;48.810;11.892;2023-04-24T08:07:23;11.90;99.90
8180;DHT22;4131;48.810;11.892;2023-04-24T08:09:51;11.80;99.90
8180;DHT22;4131;48.810;11.892;2023-04-24T08:12:19;11.90;99.90
8180;DHT22;4131;48.810;11.892;2023-04-24T08:14:47;11.80;99.90
8180;DHT22;4131;48.810;11.892;2023-04-24T08:17:16;11.90;99.90
8180;DHT22;4131;48.810;11.892;2023-04-24T08:19:46;12.00;99.90
8180;DHT22;4131;48.810;11.892;2023-04-24T08:22:15;13.60;99.90
8180;DHT22;4131;48.810;11.892;2023-04-24T08:24:43;12.10;99.90
8180;DHT22;4131;48.810;11.892;2023-04-24T08:27:11;11.40;99.90
8180;DHT22;4131;48.810;11.892;2023-04-24T08:29:39;10.80;99.90
8180;DHT22;4131;48.810;11.892;2023-04-24T08:32:07;10.40;99.90
8180;DHT22;4131;48.810;11.892;2023-04-24T08:34:35;10.70;99.90
8180;DHT22;4131;48.810;11.892;2023-04-24T08:37:05;10.20;99.90
8180;DHT22;4131;48.810;11.892;2023-04-24T08:39:33;10.00;99.90
8180;DHT22;4131;48.810;11.892;2023-04-24T08:42:02;10.00;99.90
8180;DHT22;4131;48.810;11.892;2023-04-24T08:44:35;10.20;99.90
8180;DHT22;4131;48.810;11.892;2023-04-24T08:47:04;10.40;99.90
8180;DHT22;4131;48.810;11.892;2023-04-24T08:49:33;10.40;99.90
8180;DHT22;4131;48.810;11.892;2023-04-24T08:52:02;10.40;99.90
8180;DHT22;4131;48.810;11.892;2023-04-24T08:54:32;10.60;99.90
8180;DHT22;4131;48.810;11.892;2023-04-24T08:57:02;10.60;99.90
8180;DHT22;4131;48.810;11.892;2023-04-24T08:59:31;10.70;99.90
8180;DHT22;4131;48.810;11.892;2023-04-24T09:02:00;12.10;99.90
8180;DHT22;4131;48.810;11.892;2023-04-24T09:04:30;10.80;99.90
8180;DHT22;4131;48.810;11.892;2023-04-24T09:07:00;11.10;99.90
8180;DHT22;4131;48.810;11.892;2023-04-24T09:09:31;10.80;99.90
8180;DHT22;4131;48.810;11.892;2023-04-24T09:12:00;10.90;99.90
8180;DHT22;4131;48.810;11.892;2023-04-24T09:14:29;11.00;99.90
8180;DHT22;4131;48.810;11.892;2023-04-24T09:16:58;11.30;99.90
8180;DHT22;4131;48.810;11.892;2023-04-24T09:19:26;11.30;99.90
8180;DHT22;4131;48.810;11.892;2023-04-24T09:21:54;11.10;99.90
8180;DHT22;4131;48.810;11.892;2023-04-24T09:24:22;12.50;99.90
8180;DHT22;4131;48.810;11.892;2023-04-24T09:26:57;11.60;99.90
8180;DHT22;4131;48.810;11.892;2023-04-24T09:29:28;12.00;99.90
8180;DHT22;4131;48.810;11.892;2023-04-24T09:31:56;12.40;99.90
8180;DHT22;4131;48.810;11.892;2023-04-24T09:34:25;13.30;99.90
8180;DHT22;4131;48.810;11.892;2023-04-24T09:36:54;13.40;99.90
8180;DHT22;4131;48.810;11.892;2023-04-24T09:39:22;13.40;99.90
8180;DHT22;4131;48.810;11.892;2023-04-24T09:41:52;14.30;99.90
8180;DHT22;4131;48.810;11.892;2023-04-24T09:44:23;15.00;99.90
8180;DHT22;4131;48.810;11.892;2023-04-24T09:46:54;15.40;99.90
8180;DHT22;4131;48.810;11.892;2023-04-24T09:49:23;15.50;99.90
8180;DHT22;4131;48.810;11.892;2023-04-24T09:51:52;14.70;99.90
8180;DHT22;4131;48.810;11.892;2023-04-24T09:54:21;14.50;99.90
8180;DHT22;4131;48.810;11.892;2023-04-24T09:56:50;14.10;99.90
8180;DHT22;4131;48.810;11.892;2023-04-24T09:59:22;13.60;99.90
8180;DHT22;4131;48.810;11.892;2023-04-24T10:01:50;13.60;99.90
8180;DHT22;4131;48.810;11.892;2023-04-24T10:04:20;13.60;99.90
8180;DHT22;4131;48.810;11.892;2023-04-24T10:06:50;13.30;99.90
8180;DHT22;4131;48.810;11.892;2023-04-24T10:09:20;13.20;99.90
8180;DHT22;4131;48.810;11.892;2023-04-24T10:11:50;12.80;99.90
8180;DHT22;4131;48.810;11.892;2023-04-24T10:14:22;12.80;99.90
8180;DHT22;4131;48.810;11.892;2023-04-24T10:16:54;13.10;99.90
8180;DHT22;4131;48.810;11.892;2023-04-24T10:19:25;12.60;99.90
8180;DHT22;4131;48.810;11.892;2023-04-24T10:21:53;12.90;99.90
8180;DHT22;4131;48.810;11.892;2023-04-24T10:24:22;12.40;99.90
8180;DHT22;4131;48.810;11.892;2023-04-24T10:26:50;12.30;99.90
8180;DHT22;4131;48.810;11.892;2023-04-24T10:29:19;12.40;99.90
8180;DHT22;4131;48.810;11.892;2023-04-24T10:31:49;12.70;99.90
8180;DHT22;4131;48.810;11.892;2023-04-24T10:34:18;12.80;99.90
8180;DHT22;4131;48.810;11.892;2023-04-24T10:36:51;13.20;99.90
8180;DHT22;4131;48.810;11.892;2023-04-24T10:39:23;13.20;99.90
8180;DHT22;4131;48.810;11.892;2023-04-24T10:41:54;13.10;99.90
8180;DHT22;4131;48.810;11.892;2023-04-24T10:44:24;13.10;99.90
8180;DHT22;4131;48.810;11.892;2023-04-24T10:46:55;13.00;99.90
8180;DHT22;4131;48.810;11.892;2023-04-24T10:49:28;13.70;99.90
8180;DHT22;4131;48.810;11.892;2023-04-24T10:52:00;13.30;99.90
8180;DHT22;4131;48.810;11.892;2023-04-24T10:54:29;14.00;99.90
8180;DHT22;4131;48.810;11.892;2023-04-24T10:57:26;14.80;99.90
8180;DHT22;4131;48.810;11.892;2023-04-24T11:00:19;14.70;99.90
8180;DHT22;4131;48.810;11.892;2023-04-24T11:02:49;14.70;99.90
8180;DHT22;4131;48.810;11.892;2023-04-24T11:05:21;14.50;99.90
8180;DHT22;4131;48.810;11.892;2023-04-24T11:08:11;16.10;99.90
8180;DHT22;4131;48.810;11.892;2023-04-24T11:10:41;13.20;99.90
8180;DHT22;4131;48.810;11.892;2023-04-24T11:13:14;12.20;99.90
8180;DHT22;4131;48.810;11.892;2023-04-24T11:15:42;11.00;99.90
8180;DHT22;4131;48.810;11.892;2023-04-24T11:18:16;10.90;99.90
8180;DHT22;4131;48.810;11.892;2023-04-24T11:20:46;12.30;99.90
8180;DHT22;4131;48.810;11.892;2023-04-24T11:23:18;12.00;99.90
8180;DHT22;4131;48.810;11.892;2023-04-24T11:26:10;9.80;99.90
8180;DHT22;4131;48.810;11.892;2023-04-24T11:28:44;11.00;99.90
8180;DHT22;4131;48.810;11.892;2023-04-24T11:31:36;10.50;99.90
8180;DHT22;4131;48.810;11.892;2023-04-24T11:34:10;11.00;99.90
8180;DHT22;4131;48.810;11.892;2023-04-24T11:36:40;12.50;99.90
8180;DHT22;4131;48.810;11.892;2023-04-24T11:39:10;13.20;99.90
8180;DHT22;4131;48.810;11.892;2023-04-24T11:41:39;14.20;99.90
8180;DHT22;4131;48.810;11.892;2023-04-24T11:44:09;13.90;99.90
8180;DHT22;4131;48.810;11.892;2023-04-24T11:46:38;13.90;99.90
8180;DHT22;4131;48.810;11.892;2023-04-24T11:49:08;13.90;99.90
8180;DHT22;4131;48.810;11.892;2023-04-24T11:51:36;14.70;99.90
8180;DHT22;4131;48.810;11.892;2023-04-24T11:54:20;15.50;99.90
8180;DHT22;4131;48.810;11.892;2023-04-24T11:56:49;15.60;99.90
8180;DHT22;4131;48.810;11.892;2023-04-24T11:59:17;15.00;99.90
8180;DHT22;4131;48.810;11.892;2023-04-24T12:01:46;14.80;99.90
8180;DHT22;4131;48.810;11.892;2023-04-24T12:04:17;14.60;99.90
8180;DHT22;4131;48.810;11.892;2023-04-24T12:07:01;14.30;99.90
8180;DHT22;4131;48.810;11.892;2023-04-24T12:09:40;14.30;99.90
8180;DHT22;4131;48.810;11.892;2023-04-24T12:12:10;13.80;99.90
8180;DHT22;4131;48.810;11.892;2023-04-24T12:14:52;14.10;99.90
8180;DHT22;4131;48.810;11.892;2023-04-24T12:17:27;14.50;99.90
8180;DHT22;4131;48.810;11.892;2023-04-24T12:20:01;13.80;99.90
8180;DHT22;4131;48.810;11.892;2023-04-24T12:22:43;14.30;99.90
8180;DHT22;4131;48.810;11.892;2023-04-24T12:25:13;13.90;99.90
8180;DHT22;4131;48.810;11.892;2023-04-24T12:27:42;13.60;99.90
8180;DHT22;4131;48.810;11.892;2023-04-24T12:30:12;14.00;99.90
8180;DHT22;4131;48.810;11.892;2023-04-24T12:32:42;14.80;99.90
8180;DHT22;4131;48.810;11.892;2023-04-24T12:35:12;14.90;99.90
8180;DHT22;4131;48.810;11.892;2023-04-24T12:37:42;14.70;99.90
8180;DHT22;4131;48.810;11.892;2023-04-24T12:40:14;14.20;99.90
8180;DHT22;4131;48.810;11.892;2023-04-24T12:42:44;13.60;99.90
8180;DHT22;4131;48.810;11.892;2023-04-24T12:45:14;13.90;99.90
8180;DHT22;4131;48.810;11.892;2023-04-24T12:47:44;13.60;99.90
8180;DHT22;4131;48.810;11.892;2023-04-24T12:50:14;13.50;99.90
8180;DHT22;4131;48.810;11.892;2023-04-24T12:52:43;13.70;99.90
8180;DHT22;4131;48.810;11.892;2023-04-24T12:55:12;13.90;99.90
8180;DHT22;4131;48.810;11.892;2023-04-24T12:57:40;13.90;99.90
8180;DHT22;4131;48.810;11.892;2023-04-24T13:00:09;13.90;99.90
8180;DHT22;4131;48.810;11.892;2023-04-24T13:02:37;13.70;99.90
8180;DHT22;4131;48.810;11.892;2023-04-24T13:05:06;13.60;99.90
8180;DHT22;4131;48.810;11.892;2023-04-24T13:07:36;13.50;99.90
8180;DHT22;4131;48.810;11.892;2023-04-24T13:10:04;13.50;99.90
8180;DHT22;4131;48.810;11.892;2023-04-24T13:12:33;13.60;99.90
8180;DHT22;4131;48.810;11.892;2023-04-24T13:15:01;14.00;99.90
8180;DHT22;4131;48.810;11.892;2023-04-24T13:17:30;14.20;99.90
8180;DHT22;4131;48.810;11.892;2023-04-24T13:19:58;14.00;99.90
8180;DHT22;4131;48.810;11.892;2023-04-24T13:22:26;14.00;99.90
8180;DHT22;4131;48.810;11.892;2023-04-24T13:24:56;14.10;99.90
8180;DHT22;4131;48.810;11.892;2023-04-24T13:27:24;14.00;99.90
8180;DHT22;4131;48.810;11.892;2023-04-24T13:29:52;14.40;99.90
8180;DHT22;4131;48.810;11.892;2023-04-24T13:32:20;14.10;99.90
8180;DHT22;4131;48.810;11.892;2023-04-24T13:34:48;14.50;99.90
8180;DHT22;4131;48.810;11.892;2023-04-24T13:37:16;14.60;99.90
8180;DHT22;4131;48.810;11.892;2023-04-24T13:39:44;14.70;99.90
8180;DHT22;4131;48.810;11.892;2023-04-24T13:42:14;13.80;99.90
8180;DHT22;4131;48.810;11.892;2023-04-24T13:44:42;13.10;99.90
8180;DHT22;4131;48.810;11.892;2023-04-24T13:47:10;13.90;99.90
8180;DHT22;4131;48.810;11.892;2023-04-24T13:49:38;12.90;99.90
8180;DHT22;4131;48.810;11.892;2023-04-24T13:52:06;12.70;99.90
8180;DHT22;4131;48.810;11.892;2023-04-24T13:54:34;12.60;99.90
8180;DHT22;4131;48.810;11.892;2023-04-24T13:57:03;14.40;99.90
8180;DHT22;4131;48.810;11.892;2023-04-24T13:59:32;12.70;99.90
8180;DHT22;4131;48.810;11.892;2023-04-24T14:02:00;14.20;99.90
8180;DHT22;4131;48.810;11.892;2023-04-24T14:04:28;13.40;99.90
8180;DHT22;4131;48.810;11.892;2023-04-24T14:06:57;14.30;99.90
8180;DHT22;4131;48.810;11.892;2023-04-24T14:09:25;14.10;99.90
8180;DHT22;4131;48.810;11.892;2023-04-24T14:11:53;14.00;99.90
8180;DHT22;4131;48.810;11.892;2023-04-24T14:14:21;13.90;99.90
8180;DHT22;4131;48.810;11.892;2023-04-24T14:16:50;14.40;99.90
8180;DHT22;4131;48.810;11.892;2023-04-24T14:19:18;14.50;99.90
8180;DHT22;4131;48.810;11.892;2023-04-24T14:21:47;14.40;99.90
8180;DHT22;4131;48.810;11.892;2023-04-24T14:24:15;14.20;99.90
8180;DHT22;4131;48.810;11.892;2023-04-24T14:26:43;14.00;99.90
8180;DHT22;4131;48.810;11.892;2023-04-24T14:29:11;13.80;99.90
8180;DHT22;4131;48.810;11.892;2023-04-24T14:31:41;14.00;99.90
8180;DHT22;4131;48.810;11.892;2023-04-24T14:34:11;13.80;99.90
8180;DHT22;4131;48.810;11.892;2023-04-24T14:36:39;13.80;99.90
8180;DHT22;4131;48.810;11.892;2023-04-24T14:39:07;13.80;99.90
8180;DHT22;4131;48.810;11.892;2023-04-24T14:41:35;13.70;99.90
8180;DHT22;4131;48.810;11.892;2023-04-24T14:44:04;14.40;99.90
8180;DHT22;4131;48.810;11.892;2023-04-24T14:46:32;13.90;99.90
8180;DHT22;4131;48.810;11.892;2023-04-24T14:49:00;13.70;99.90
8180;DHT22;4131;48.810;11.892;2023-04-24T14:51:30;13.90;99.90
8180;DHT22;4131;48.810;11.892;2023-04-24T14:53:58;13.70;99.90
8180;DHT22;4131;48.810;11.892;2023-04-24T14:56:26;13.50;99.90
8180;DHT22;4131;48.810;11.892;2023-04-24T14:58:55;13.40;99.90
8180;DHT22;4131;48.810;11.892;2023-04-24T15:01:23;13.30;99.90
8180;DHT22;4131;48.810;11.892;2023-04-24T15:03:51;13.30;99.90
8180;DHT22;4131;48.810;11.892;2023-04-24T15:06:20;14.40;99.90
8180;DHT22;4131;48.810;11.892;2023-04-24T15:08:50;13.10;99.90
8180;DHT22;4131;48.810;11.892;2023-04-24T15:11:18;12.90;99.90
8180;DHT22;4131;48.810;11.892;2023-04-24T15:13:46;12.80;99.90
8180;DHT22;4131;48.810;11.892;2023-04-24T15:16:15;12.60;99.90
8180;DHT22;4131;48.810;11.892;2023-04-24T15:18:43;13.90;99.90
8180;DHT22;4131;48.810;11.892;2023-04-24T15:21:11;13.80;99.90
8180;DHT22;4131;48.810;11.892;2023-04-24T15:23:39;12.50;99.90
8180;DHT22;4131;48.810;11.892;2023-04-24T15:26:09;12.60;99.90
8180;DHT22;4131;48.810;11.892;2023-04-24T15:28:37;12.50;99.90
8180;DHT22;4131;48.810;11.892;2023-04-24T15:31:05;12.50;99.90
8180;DHT22;4131;48.810;11.892;2023-04-24T15:33:33;12.30;99.90
8180;DHT22;4131;48.810;11.892;2023-04-24T15:36:01;13.10;99.90
8180;DHT22;4131;48.810;11.892;2023-04-24T15:38:30;12.60;99.90
8180;DHT22;4131;48.810;11.892;2023-04-24T15:40:58;12.50;99.90
8180;DHT22;4131;48.810;11.892;2023-04-24T15:43:28;12.30;99.90
8180;DHT22;4131;48.810;11.892;2023-04-24T15:45:59;12.40;99.90
8180;DHT22;4131;48.810;11.892;2023-04-24T15:48:29;12.40;99.90
8180;DHT22;4131;48.810;11.892;2023-04-24T15:50:57;12.40;99.90
8180;DHT22;4131;48.810;11.892;2023-04-24T15:53:25;12.40;99.90
8180;DHT22;4131;48.810;11.892;2023-04-24T15:55:54;13.40;99.90
8180;DHT22;4131;48.810;11.892;2023-04-24T15:58:23;12.20;99.90
8180;DHT22;4131;48.810;11.892;2023-04-24T16:00:53;12.10;99.90
8180;DHT22;4131;48.810;11.892;2023-04-24T16:03:21;12.40;99.90